Time;durP1;ratioP1;P1;durP2;ratioP2;P2;SDS_P1;SDS_P2;PMS_P1;PMS_P2;Temp;Humidity;BMP_temperature;BMP_pressure;BME280_temperature;BME280_humidity;BME280_pressure;Samples;Min_cycle;Max_cycle;Signal;HPM_P1;HPM_P2
2022/11/04 00:01:23;;;;;;;1.23;1.13;;;16.80;59.30;;;;;;5048158;28;45301;-78
2022/11/04 00:03:50;;;;;;;1.30;1.20;;;16.80;59.30;;;;;;5048351;28;45239;-77
2022/11/04 00:06:19;;;;;;;1.35;0.93;;;16.80;59.30;;;;;;5048687;28;45514;-77
2022/11/04 00:08:48;;;;;;;1.38;1.13;;;16.80;59.20;;;;;;5047717;28;46393;-77
2022/11/04 00:14:00;;;;;;;1.40;1.02;;;16.80;59.20;;;;;;5049288;28;45184;-78
2022/11/04 00:19:11;;;;;;;1.02;1.00;;;16.80;59.20;;;;;;5045167;28;45261;-78
2022/11/04 00:29:55;;;;;;;0.98;0.98;;;16.80;59.30;;;;;;5045664;28;45278;-79
2022/11/04 00:35:07;;;;;;;0.90;0.90;;;16.80;59.30;;;;;;5047024;28;45341;-78
2022/11/04 00:37:37;;;;;;;1.23;1.00;;;16.80;59.30;;;;;;5050748;28;45226;-78
2022/11/04 00:40:05;;;;;;;0.90;0.90;;;16.70;59.30;;;;;;5050206;28;45548;-78
2022/11/04 00:42:32;;;;;;;1.58;1.10;;;16.70;59.30;;;;;;5050251;28;45365;-78
2022/11/04 00:44:59;;;;;;;1.70;1.15;;;16.70;59.40;;;;;;5050880;28;45225;-78
2022/11/04 00:47:26;;;;;;;1.13;0.90;;;16.70;60.00;;;;;;5050755;28;45179;-78
2022/11/04 00:49:53;;;;;;;2.15;1.00;;;16.70;59.40;;;;;;5050165;28;46397;-78
2022/11/04 00:52:20;;;;;;;1.92;1.10;;;16.70;59.40;;;;;;5050188;28;45244;-78
2022/11/04 00:54:48;;;;;;;1.05;1.00;;;16.70;59.40;;;;;;5050433;28;45305;-77
2022/11/04 00:57:15;;;;;;;1.00;0.93;;;16.70;59.40;;;;;;5050451;28;45376;-78
2022/11/04 00:59:44;;;;;;;0.85;0.85;;;16.70;59.40;;;;;;5050392;28;47771;-78
2022/11/04 01:02:11;;;;;;;1.08;0.98;;;16.70;59.40;;;;;;5050027;28;45319;-78
2022/11/04 01:04:38;;;;;;;1.17;0.90;;;16.70;59.40;;;;;;5050093;28;45352;-78
2022/11/04 01:07:05;;;;;;;1.08;0.98;;;16.70;59.40;;;;;;5050496;28;45534;-79
2022/11/04 01:09:32;;;;;;;1.50;0.70;;;16.60;60.00;;;;;;5049864;28;45297;-78
2022/11/04 01:12:00;;;;;;;0.80;0.77;;;16.60;60.00;;;;;;5049296;28;45253;-78
2022/11/04 01:14:27;;;;;;;0.88;0.88;;;16.60;59.40;;;;;;5050221;28;45369;-78
2022/11/04 01:16:54;;;;;;;1.08;0.90;;;16.60;59.40;;;;;;5049746;28;45200;-78
2022/11/04 01:19:21;;;;;;;1.08;1.08;;;16.60;59.50;;;;;;5049748;28;46462;-78
2022/11/04 01:21:51;;;;;;;1.38;0.98;;;16.60;60.00;;;;;;5049540;28;45434;-78
2022/11/04 01:24:18;;;;;;;0.95;0.90;;;16.60;59.40;;;;;;5049982;28;45296;-78
2022/11/04 01:26:45;;;;;;;0.80;0.80;;;16.60;59.40;;;;;;5049841;28;45471;-79
2022/11/04 01:29:13;;;;;;;0.70;0.70;;;16.60;59.40;;;;;;5049492;28;46423;-78
2022/11/04 01:31:40;;;;;;;0.90;0.90;;;16.60;59.50;;;;;;5049545;28;45333;-78
2022/11/04 01:34:07;;;;;;;0.95;0.88;;;16.60;59.40;;;;;;5049627;28;45268;-78
2022/11/04 01:36:34;;;;;;;1.10;0.90;;;16.60;59.50;;;;;;5049745;28;45499;-78
2022/11/04 01:39:01;;;;;;;0.82;0.82;;;16.50;59.50;;;;;;5049314;28;45648;-78
2022/11/04 01:41:31;;;;;;;0.90;0.90;;;16.50;59.50;;;;;;5049608;28;45272;-78
2022/11/04 01:43:58;;;;;;;1.13;0.90;;;16.50;59.40;;;;;;5049496;28;45359;-78
2022/11/04 01:46:35;;;;;;;0.70;0.70;;;16.50;59.40;;;;;;5048256;28;45218;-78
2022/11/04 01:49:04;;;;;;;0.80;0.80;;;16.50;59.40;;;;;;5049224;28;46719;-78
2022/11/04 01:51:32;;;;;;;0.90;0.90;;;16.50;60.10;;;;;;5049404;28;45360;-78
2022/11/04 01:53:59;;;;;;;1.10;0.70;;;16.50;59.40;;;;;;5049901;28;45339;-78
2022/11/04 01:56:26;;;;;;;1.10;0.82;;;16.60;59.50;;;;;;5049602;28;45186;-78
2022/11/04 01:58:54;;;;;;;0.68;0.68;;;16.50;59.50;;;;;;5048985;28;45682;-77
2022/11/04 02:01:20;;;;;;;0.80;0.80;;;16.50;59.50;;;;;;5048372;28;45328;-78
2022/11/04 02:03:51;;;;;;;0.77;0.77;;;16.50;59.50;;;;;;5049223;28;45296;-78
2022/11/04 02:06:18;;;;;;;0.75;0.70;;;16.50;59.50;;;;;;5049396;28;45495;-78
2022/11/04 02:08:45;;;;;;;0.80;0.65;;;16.50;59.50;;;;;;5048947;28;45415;-77
2022/11/04 02:12:48;;;;;;;1.75;0.88;;;16.50;59.50;;;;;;5048901;28;45352;-78
2022/11/04 02:13:58;;;;;;;0.75;0.75;;;16.50;59.50;;;;;;5048765;28;45300;-78
2022/11/04 02:16:28;;;;;;;0.88;0.70;;;16.50;59.50;;;;;;5049415;28;45162;-77
2022/11/04 02:18:58;;;;;;;0.80;0.80;;;16.40;59.40;;;;;;5048937;28;46412;-77
2022/11/04 02:21:36;;;;;;;0.70;0.70;;;16.40;59.40;;;;;;5048970;28;45205;-77
2022/11/04 02:24:10;;;;;;;0.70;0.70;;;16.40;59.40;;;;;;5049125;28;45216;-78
2022/11/04 02:27:04;;;;;;;1.33;0.82;;;16.40;59.40;;;;;;5048967;28;45251;-78
2022/11/04 02:29:50;;;;;;;0.98;0.70;;;16.50;59.50;;;;;;5042132;28;45238;-78
2022/11/04 02:32:20;;;;;;;1.77;1.00;;;16.40;59.40;;;;;;5047697;28;45198;-77
2022/11/04 02:34:53;;;;;;;0.52;0.52;;;16.40;59.40;;;;;;5048689;28;45245;-78
2022/11/04 02:37:24;;;;;;;0.70;0.70;;;16.40;59.40;;;;;;5049049;28;45452;-77
2022/11/04 02:39:55;;;;;;;0.93;0.73;;;16.40;59.40;;;;;;5048586;28;45229;-77
2022/11/04 02:42:26;;;;;;;1.05;0.73;;;16.40;59.40;;;;;;5048412;28;45313;-78
2022/11/04 02:44:59;;;;;;;0.57;0.50;;;16.40;59.40;;;;;;5048480;28;45219;-77
2022/11/04 02:47:28;;;;;;;0.60;0.60;;;16.40;59.40;;;;;;5048594;28;45127;-78
2022/11/04 02:49:57;;;;;;;1.27;0.80;;;16.40;59.40;;;;;;5048465;28;45285;-77
2022/11/04 02:52:26;;;;;;;0.98;0.70;;;16.40;59.40;;;;;;5048318;28;45273;-77
2022/11/04 02:54:56;;;;;;;0.93;0.82;;;16.40;59.40;;;;;;5048335;28;45322;-78
2022/11/04 02:57:26;;;;;;;0.77;0.60;;;16.40;59.40;;;;;;5048168;28;45396;-77
2022/11/04 02:59:53;;;;;;;1.25;0.57;;;16.40;59.40;;;;;;5048036;28;46379;-77
2022/11/04 03:02:24;;;;;;;0.95;0.65;;;16.30;59.30;;;;;;5048210;28;45415;-78
2022/11/04 03:04:51;;;;;;;0.68;0.65;;;16.30;59.40;;;;;;5048176;28;45191;-77
2022/11/04 03:07:22;;;;;;;1.33;0.70;;;16.30;59.40;;;;;;5048116;28;45171;-77
2022/11/04 03:09:51;;;;;;;0.90;0.65;;;16.30;59.40;;;;;;5048059;28;47034;-78
2022/11/04 03:12:19;;;;;;;0.50;0.50;;;16.30;60.00;;;;;;5048046;28;45257;-77
2022/11/04 03:14:47;;;;;;;1.20;0.70;;;16.30;59.40;;;;;;5048271;28;45289;-77
2022/11/04 03:17:15;;;;;;;1.20;0.65;;;16.30;59.40;;;;;;5048323;28;45292;-77
2022/11/04 03:19:47;;;;;;;0.50;0.50;;;16.30;59.40;;;;;;5048065;28;46429;-77
2022/11/04 03:22:15;;;;;;;0.85;0.40;;;16.30;59.40;;;;;;5047556;28;45442;-77
2022/11/04 03:24:42;;;;;;;0.57;0.57;;;16.30;59.40;;;;;;5048034;28;45195;-78
2022/11/04 03:27:12;;;;;;;0.50;0.50;;;16.30;59.40;;;;;;5047417;28;45230;-77
2022/11/04 03:29:42;;;;;;;0.65;0.60;;;16.30;59.40;;;;;;5046883;28;46577;-77
2022/11/04 03:32:12;;;;;;;0.75;0.75;;;16.30;59.40;;;;;;5047790;28;45352;-78
2022/11/04 03:34:39;;;;;;;0.70;0.70;;;16.30;59.40;;;;;;5047794;28;45367;-77
2022/11/04 03:37:07;;;;;;;0.95;0.70;;;16.30;59.40;;;;;;5048040;28;45411;-78
2022/11/04 03:39:34;;;;;;;0.60;0.60;;;16.30;59.40;;;;;;5047441;28;45576;-77
2022/11/04 03:42:18;;;;;;;1.23;0.57;;;16.20;59.40;;;;;;5047601;28;45385;-77
2022/11/04 03:44:46;;;;;;;0.50;0.50;;;16.30;59.50;;;;;;5048033;28;45243;-77
2022/11/04 03:47:13;;;;;;;1.02;0.70;;;16.20;59.40;;;;;;5047633;28;45343;-77
2022/11/04 03:49:40;;;;;;;0.50;0.50;;;16.30;59.50;;;;;;5047509;28;45711;-77
2022/11/04 03:52:09;;;;;;;0.50;0.50;;;16.20;59.40;;;;;;5047352;28;45261;-77
2022/11/04 03:54:36;;;;;;;0.40;0.40;;;16.20;59.40;;;;;;5047738;28;45309;-77
2022/11/04 03:57:27;;;;;;;0.68;0.43;;;16.20;59.40;;;;;;5047677;28;45491;-78
2022/11/04 04:00:09;;;;;;;0.57;0.57;;;16.20;59.90;;;;;;5042239;28;46417;-77
2022/11/04 04:02:49;;;;;;;0.60;0.60;;;16.20;59.30;;;;;;5047294;28;45252;-78
2022/11/04 04:05:19;;;;;;;0.40;0.40;;;16.20;59.30;;;;;;5047922;28;45319;-78
2022/11/04 04:07:49;;;;;;;1.00;0.55;;;16.20;59.30;;;;;;5048150;28;45425;-78
2022/11/04 04:13:04;;;;;;;0.63;0.60;;;16.20;59.30;;;;;;5047448;28;45328;-77
2022/11/04 04:15:35;;;;;;;0.50;0.50;;;16.20;59.30;;;;;;5047394;28;45224;-77
2022/11/04 04:18:03;;;;;;;0.60;0.60;;;16.20;59.30;;;;;;5047377;28;45404;-77
2022/11/04 04:20:32;;;;;;;0.40;0.40;;;16.20;59.30;;;;;;5047055;28;45306;-78
2022/11/04 04:23:03;;;;;;;0.75;0.45;;;16.20;59.30;;;;;;5047105;28;45312;-77
2022/11/04 04:28:15;;;;;;;0.50;0.50;;;16.10;59.30;;;;;;5047598;28;45483;-77
2022/11/04 04:30:42;;;;;;;0.75;0.60;;;16.20;59.40;;;;;;5046808;28;45484;-77
2022/11/04 04:33:11;;;;;;;0.50;0.50;;;16.10;59.30;;;;;;5047118;28;45270;-78
2022/11/04 04:35:43;;;;;;;0.68;0.50;;;16.10;59.30;;;;;;5046957;28;45249;-78
2022/11/04 04:46:32;;;;;;;0.30;0.30;;;16.10;59.30;;;;;;5044413;28;45297;-77
2022/11/04 04:49:04;;;;;;;0.40;0.40;;;16.10;59.40;;;;;;5047403;28;45221;-77
2022/11/04 04:51:31;;;;;;;0.70;0.45;;;16.10;59.30;;;;;;5046739;28;46745;-76
2022/11/04 04:54:00;;;;;;;0.57;0.57;;;16.10;59.30;;;;;;5047148;28;45273;-77
2022/11/04 04:56:27;;;;;;;0.50;0.50;;;16.10;59.90;;;;;;5046673;28;45343;-77
2022/11/04 04:58:54;;;;;;;0.50;0.50;;;16.10;59.30;;;;;;5047187;28;45358;-76
2022/11/04 05:01:21;;;;;;;0.68;0.60;;;16.10;59.30;;;;;;5047772;28;46380;-76
2022/11/04 05:03:49;;;;;;;1.00;0.52;;;16.10;59.30;;;;;;5046627;28;45314;-76
2022/11/04 05:06:16;;;;;;;1.45;0.60;;;16.10;59.30;;;;;;5046718;28;45250;-78
2022/11/04 05:08:43;;;;;;;0.45;0.45;;;16.10;59.30;;;;;;5046861;28;45386;-77
2022/11/04 05:11:11;;;;;;;0.40;0.40;;;16.10;59.30;;;;;;5046251;28;46395;-77
2022/11/04 05:13:38;;;;;;;0.50;0.50;;;16.10;59.30;;;;;;5045653;28;45210;-78
2022/11/04 05:16:06;;;;;;;0.77;0.70;;;16.10;59.90;;;;;;5046576;28;45226;-77
2022/11/04 05:18:33;;;;;;;0.65;0.65;;;16.00;59.30;;;;;;5046596;28;45602;-77
2022/11/04 05:21:03;;;;;;;0.43;0.40;;;16.00;59.30;;;;;;5048774;28;45695;-78
2022/11/04 05:23:30;;;;;;;0.47;0.47;;;16.00;59.30;;;;;;5049585;28;45272;-77
2022/11/04 05:25:58;;;;;;;0.40;0.40;;;16.00;59.30;;;;;;5050237;28;45365;-77
2022/11/04 05:28:26;;;;;;;0.85;0.52;;;16.00;59.30;;;;;;5049916;28;45377;-78
2022/11/04 05:30:53;;;;;;;0.95;0.50;;;16.00;59.30;;;;;;5049591;28;45323;-77
2022/11/04 05:33:20;;;;;;;0.55;0.55;;;16.00;59.30;;;;;;5049697;28;45289;-77
2022/11/04 05:35:47;;;;;;;0.60;0.60;;;16.00;59.30;;;;;;5049584;28;45282;-78
2022/11/04 05:38:14;;;;;;;0.57;0.57;;;16.00;59.30;;;;;;5049453;28;45309;-77
2022/11/04 05:40:41;;;;;;;0.50;0.50;;;16.00;59.20;;;;;;5049634;28;45351;-77
2022/11/04 05:43:08;;;;;;;0.38;0.38;;;16.00;59.30;;;;;;5049789;28;45193;-78
2022/11/04 05:45:36;;;;;;;1.05;0.40;;;16.00;59.30;;;;;;5050184;28;45244;-77
2022/11/04 05:48:04;;;;;;;0.63;0.55;;;16.00;59.30;;;;;;5050166;28;45304;-77
2022/11/04 05:50:32;;;;;;;0.60;0.50;;;15.90;59.20;;;;;;5049444;28;45648;-77
2022/11/04 05:52:58;;;;;;;0.55;0.50;;;15.90;59.20;;;;;;5049910;28;45243;-78
2022/11/04 05:55:26;;;;;;;0.60;0.60;;;15.90;59.80;;;;;;5049467;28;45143;-78
2022/11/04 05:57:53;;;;;;;1.10;0.60;;;16.00;59.30;;;;;;5049671;28;45335;-76
2022/11/04 06:02:49;;;;;;;0.65;0.32;;;15.90;59.20;;;;;;5008085;28;45172;-77
2022/11/04 06:05:16;;;;;;;0.47;0.47;;;15.90;59.20;;;;;;5009718;28;45240;-77
2022/11/04 06:07:43;;;;;;;0.40;0.40;;;15.90;59.20;;;;;;5009815;28;45469;-77
2022/11/04 06:10:10;;;;;;;0.50;0.30;;;15.90;59.20;;;;;;5009198;28;46673;-77
2022/11/04 06:12:37;;;;;;;0.88;0.50;;;15.90;59.10;;;;;;5009400;28;45300;-77
2022/11/04 06:15:05;;;;;;;0.45;0.45;;;15.90;59.10;;;;;;5009303;28;45318;-78
2022/11/04 06:17:32;;;;;;;0.35;0.35;;;15.90;59.20;;;;;;5010525;28;45445;-77
2022/11/04 06:20:00;;;;;;;1.15;0.40;;;15.90;59.20;;;;;;5009296;28;45351;-77
2022/11/04 06:22:27;;;;;;;0.40;0.40;;;15.80;59.70;;;;;;5009340;28;45364;-77
2022/11/04 06:24:54;;;;;;;0.40;0.40;;;15.80;59.20;;;;;;5009140;28;45257;-77
2022/11/04 06:27:21;;;;;;;1.00;0.47;;;15.90;59.20;;;;;;5009254;28;45134;-78
2022/11/04 06:29:48;;;;;;;0.88;0.47;;;15.80;59.70;;;;;;5008760;28;45509;-77
2022/11/04 06:32:16;;;;;;;0.68;0.68;;;15.90;59.20;;;;;;5008439;28;45350;-77
2022/11/04 06:34:43;;;;;;;0.25;0.25;;;15.80;59.10;;;;;;5008985;28;45303;-77
2022/11/04 06:37:11;;;;;;;1.00;0.57;;;15.80;59.10;;;;;;5009393;28;45272;-78
2022/11/04 06:39:38;;;;;;;0.77;0.32;;;15.80;59.10;;;;;;5008796;28;45431;-78
2022/11/04 06:42:05;;;;;;;0.40;0.40;;;15.80;59.10;;;;;;5008927;28;45280;-76
2022/11/04 06:44:33;;;;;;;0.60;0.60;;;15.80;59.10;;;;;;5008364;28;45404;-77
2022/11/04 06:47:00;;;;;;;0.57;0.40;;;15.80;59.10;;;;;;5009072;28;45196;-78
2022/11/04 06:49:27;;;;;;;0.50;0.50;;;15.80;59.10;;;;;;5008769;28;45216;-77
2022/11/04 06:51:54;;;;;;;0.32;0.30;;;15.80;59.10;;;;;;5008849;28;45323;-77
2022/11/04 06:54:22;;;;;;;1.33;0.50;;;15.80;59.00;;;;;;5009221;28;45268;-77
2022/11/04 06:56:50;;;;;;;0.50;0.50;;;15.80;59.10;;;;;;5009232;28;45196;-77
2022/11/04 06:59:18;;;;;;;0.50;0.50;;;15.80;59.00;;;;;;5008577;28;45240;-78
2022/11/04 07:01:45;;;;;;;0.40;0.40;;;15.70;59.00;;;;;;5008336;28;45336;-77
2022/11/04 07:04:12;;;;;;;0.77;0.57;;;15.80;59.10;;;;;;5008679;28;45339;-77
2022/11/04 07:06:39;;;;;;;0.40;0.40;;;15.80;59.10;;;;;;5009035;28;45409;-77
2022/11/04 07:09:06;;;;;;;0.50;0.50;;;15.70;59.00;;;;;;5008521;28;47685;-77
2022/11/04 07:11:34;;;;;;;0.65;0.50;;;15.80;59.00;;;;;;5008191;28;45694;-77
2022/11/04 07:14:01;;;;;;;0.82;0.40;;;15.80;59.10;;;;;;5009637;28;45298;-77
2022/11/04 07:16:28;;;;;;;0.32;0.32;;;15.80;59.00;;;;;;5009353;28;45442;-77
2022/11/04 07:18:55;;;;;;;1.27;0.50;;;15.80;59.10;;;;;;5009904;28;46453;-77
2022/11/04 07:21:22;;;;;;;0.50;0.50;;;15.80;59.00;;;;;;5008650;28;45188;-77
2022/11/04 07:23:51;;;;;;;0.30;0.30;;;15.70;59.00;;;;;;5009204;28;45314;-77
2022/11/04 07:26:21;;;;;;;0.52;0.52;;;15.80;59.10;;;;;;5011715;28;45288;-77
2022/11/04 07:28:49;;;;;;;0.80;0.38;;;15.70;59.10;;;;;;5008095;28;45492;-77
2022/11/04 07:31:16;;;;;;;0.43;0.43;;;15.80;59.10;;;;;;5007359;28;45279;-79
2022/11/04 07:33:48;;;;;;;1.10;0.60;;;15.80;59.10;;;;;;5008578;28;45301;-78
2022/11/04 07:36:15;;;;;;;1.35;0.40;;;15.80;59.10;;;;;;5008244;28;45426;-78
2022/11/04 07:38:42;;;;;;;0.60;0.50;;;15.70;59.00;;;;;;5008248;28;46743;-78
2022/11/04 07:41:10;;;;;;;0.75;0.50;;;15.70;59.10;;;;;;5007789;28;45211;-78
2022/11/04 07:43:37;;;;;;;0.68;0.50;;;15.80;59.10;;;;;;5007799;28;45367;-78
2022/11/04 07:46:06;;;;;;;0.55;0.55;;;15.80;59.00;;;;;;5007907;28;45354;-78
2022/11/04 07:48:33;;;;;;;0.52;0.40;;;15.70;59.00;;;;;;5007558;28;46484;-77
2022/11/04 07:51:00;;;;;;;0.55;0.50;;;15.70;59.00;;;;;;5008031;28;45260;-78
2022/11/04 07:53:27;;;;;;;1.15;0.60;;;15.70;59.00;;;;;;5007642;28;45233;-78
2022/11/04 07:55:55;;;;;;;1.10;0.65;;;15.70;59.00;;;;;;5008166;28;45414;-78
2022/11/04 07:58:22;;;;;;;0.50;0.50;;;15.70;59.00;;;;;;5007943;28;45426;-78
2022/11/04 08:00:49;;;;;;;0.40;0.40;;;15.70;59.00;;;;;;5007599;28;45270;-77
2022/11/04 08:03:17;;;;;;;0.45;0.45;;;15.70;59.00;;;;;;5007650;28;45208;-78
2022/11/04 08:05:44;;;;;;;0.50;0.50;;;15.80;59.10;;;;;;5007583;28;45342;-78
2022/11/04 08:08:11;;;;;;;0.60;0.60;;;15.70;59.00;;;;;;5007474;28;47723;-78
2022/11/04 08:10:38;;;;;;;0.85;0.50;;;15.80;59.00;;;;;;5007635;28;45315;-78
2022/11/04 08:13:05;;;;;;;0.40;0.40;;;15.80;59.00;;;;;;5007409;28;45241;-77
2022/11/04 08:15:32;;;;;;;0.50;0.50;;;15.80;59.00;;;;;;5007049;28;45472;-77
2022/11/04 08:17:59;;;;;;;1.15;0.50;;;15.80;58.90;;;;;;5006548;28;45232;-78
2022/11/04 08:20:27;;;;;;;0.45;0.43;;;15.80;58.90;;;;;;5007293;28;45238;-77
2022/11/04 08:22:54;;;;;;;0.70;0.65;;;15.80;58.90;;;;;;5007743;28;45304;-78
2022/11/04 08:25:22;;;;;;;2.17;0.63;;;15.80;58.80;;;;;;5007256;28;45395;-77
2022/11/04 08:27:49;;;;;;;1.02;0.68;;;15.80;58.80;;;;;;5007069;28;46374;-78
2022/11/04 08:30:15;;;;;;;0.80;0.70;;;15.80;58.80;;;;;;5006976;28;45449;-78
2022/11/04 08:32:43;;;;;;;0.50;0.50;;;15.80;59.50;;;;;;5007312;28;45247;-78
2022/11/04 08:35:10;;;;;;;0.40;0.40;;;15.80;58.90;;;;;;5007427;28;45554;-78
2022/11/04 08:37:39;;;;;;;0.55;0.50;;;15.80;58.90;;;;;;5006774;28;45534;-78
2022/11/04 08:40:07;;;;;;;0.40;0.40;;;15.80;58.90;;;;;;5006858;28;45254;-77
2022/11/04 08:42:34;;;;;;;1.00;0.60;;;15.80;58.80;;;;;;5006994;28;44766;-78
2022/11/04 08:45:00;;;;;;;1.13;0.52;;;15.90;58.90;;;;;;5007352;28;45403;-78
2022/11/04 08:47:27;;;;;;;0.85;0.50;;;15.80;58.90;;;;;;5007003;28;45234;-77
2022/11/04 08:49:54;;;;;;;1.30;0.40;;;15.80;59.00;;;;;;5007187;28;45474;-77
2022/11/04 08:52:21;;;;;;;1.00;0.45;;;15.80;59.10;;;;;;5006941;28;45367;-78
2022/11/04 08:54:49;;;;;;;0.73;0.47;;;15.80;59.60;;;;;;5007648;28;45474;-76
2022/11/04 08:57:16;;;;;;;1.08;0.47;;;15.80;58.90;;;;;;5010270;28;46594;-77
2022/11/04 08:59:43;;;;;;;0.88;0.40;;;15.90;59.00;;;;;;5010173;28;45133;-78
2022/11/04 09:02:12;;;;;;;1.88;0.55;;;15.90;59.70;;;;;;5009178;28;45319;-78
2022/11/04 09:04:39;;;;;;;0.40;0.40;;;15.90;59.00;;;;;;5010464;28;45300;-77
2022/11/04 09:07:06;;;;;;;0.50;0.50;;;15.90;59.60;;;;;;5010160;28;45297;-77
2022/11/04 09:09:33;;;;;;;1.42;0.40;;;15.90;59.00;;;;;;5010123;28;45124;-78
2022/11/04 09:12:02;;;;;;;0.68;0.63;;;15.80;59.00;;;;;;5010229;28;45307;-77
2022/11/04 09:14:29;;;;;;;0.63;0.50;;;15.90;59.00;;;;;;5010158;28;45395;-77
2022/11/04 09:16:56;;;;;;;1.00;0.50;;;15.90;59.10;;;;;;5009906;28;46570;-77
2022/11/04 09:19:23;;;;;;;0.40;0.40;;;15.90;59.10;;;;;;5010190;28;45238;-77
2022/11/04 09:21:50;;;;;;;1.35;0.95;;;15.80;59.00;;;;;;5010540;28;45272;-77
2022/11/04 09:24:17;;;;;;;0.50;0.50;;;15.90;59.10;;;;;;5009801;28;45288;-78
2022/11/04 09:26:44;;;;;;;1.92;0.60;;;15.80;59.10;;;;;;5009899;28;45924;-77
2022/11/04 09:29:12;;;;;;;0.40;0.40;;;15.90;59.30;;;;;;5009689;28;45191;-77
2022/11/04 09:31:39;;;;;;;0.93;0.70;;;15.90;59.90;;;;;;5009995;28;45251;-78
2022/11/04 09:34:06;;;;;;;0.50;0.50;;;15.90;59.20;;;;;;5010039;28;45294;-77
2022/11/04 09:36:33;;;;;;;0.40;0.35;;;15.90;59.10;;;;;;5011627;28;45454;-78
2022/11/04 09:39:00;;;;;;;2.47;0.60;;;15.90;59.10;;;;;;5029706;28;45187;-77
2022/11/04 09:41:47;;;;;;;0.75;0.52;;;15.90;59.10;;;;;;5020010;28;45196;-78
2022/11/04 09:44:21;;;;;;;0.35;0.35;;;15.90;59.10;;;;;;5009778;28;45191;-77
2022/11/04 09:46:48;;;;;;;0.28;0.28;;;16.00;59.10;;;;;;5009477;28;46458;-78
2022/11/04 09:49:15;;;;;;;2.00;0.65;;;15.90;59.10;;;;;;5010957;28;45184;-78
2022/11/04 09:51:44;;;;;;;0.82;0.40;;;16.00;59.20;;;;;;5017292;28;45254;-78
2022/11/04 09:54:13;;;;;;;0.45;0.40;;;15.90;59.10;;;;;;5009948;28;45401;-78
2022/11/04 09:56:43;;;;;;;0.50;0.50;;;16.00;59.20;;;;;;5010114;28;45484;-78
2022/11/04 09:59:10;;;;;;;0.65;0.45;;;15.90;59.10;;;;;;5009943;28;45280;-78
2022/11/04 10:01:40;;;;;;;0.50;0.50;;;16.00;59.10;;;;;;5009582;28;45190;-78
2022/11/04 10:04:18;;;;;;;1.08;0.40;;;16.00;59.20;;;;;;5009762;28;45401;-78
2022/11/04 10:06:54;;;;;;;1.92;0.40;;;16.00;59.10;;;;;;5007926;28;46694;-78
2022/11/04 10:09:28;;;;;;;0.73;0.63;;;16.00;59.10;;;;;;5009587;28;45203;-78
2022/11/04 10:12:01;;;;;;;1.10;0.40;;;16.00;59.10;;;;;;5009508;28;45509;-78
2022/11/04 10:14:44;;;;;;;0.50;0.50;;;16.00;59.10;;;;;;5010461;28;45483;-79
2022/11/04 10:17:22;;;;;;;0.73;0.50;;;16.00;59.10;;;;;;5029133;28;45480;-79
2022/11/04 10:19:56;;;;;;;1.27;0.50;;;16.00;59.20;;;;;;5017838;28;45425;-78
2022/11/04 10:22:28;;;;;;;0.70;0.50;;;16.00;59.20;;;;;;5009511;28;45294;-78
2022/11/04 10:25:01;;;;;;;0.95;0.32;;;16.10;59.20;;;;;;5011703;28;45251;-78
2022/11/04 10:27:29;;;;;;;1.13;0.65;;;16.00;59.20;;;;;;5009742;28;45642;-78
2022/11/04 10:29:57;;;;;;;1.35;0.50;;;16.00;59.30;;;;;;5009689;28;45201;-78
2022/11/04 10:32:28;;;;;;;0.57;0.40;;;16.00;59.30;;;;;;5009500;28;45275;-78
2022/11/04 10:34:56;;;;;;;2.00;0.50;;;16.10;59.20;;;;;;5009842;28;45211;-78
2022/11/04 10:37:24;;;;;;;0.93;0.63;;;16.10;59.10;;;;;;5009410;28;46409;-78
2022/11/04 10:39:51;;;;;;;0.82;0.73;;;16.10;59.10;;;;;;5009479;28;45329;-78
2022/11/04 10:42:20;;;;;;;0.35;0.35;;;16.10;59.10;;;;;;5010033;28;45136;-77
2022/11/04 10:44:47;;;;;;;2.67;0.40;;;16.10;59.10;;;;;;5010718;28;45478;-78
2022/11/04 10:47:28;;;;;;;0.73;0.50;;;16.10;59.20;;;;;;5028952;28;45484;-77
2022/11/04 10:50:01;;;;;;;1.30;0.60;;;16.10;59.20;;;;;;5000371;28;45458;-77
2022/11/04 10:52:28;;;;;;;0.45;0.45;;;16.10;59.30;;;;;;5009216;28;45260;-77
2022/11/04 10:54:55;;;;;;;0.93;0.50;;;16.10;59.20;;;;;;5015583;28;45275;-76
2022/11/04 10:57:24;;;;;;;0.68;0.43;;;16.10;60.00;;;;;;5030183;28;46450;-76
2022/11/04 10:59:53;;;;;;;0.50;0.50;;;16.10;59.30;;;;;;5028101;28;45391;-75
2022/11/04 11:02:23;;;;;;;1.00;0.52;;;16.10;59.30;;;;;;5002083;28;45508;-76
2022/11/04 11:04:51;;;;;;;1.40;0.40;;;16.10;59.40;;;;;;5009890;28;45460;-76
2022/11/04 11:07:21;;;;;;;0.50;0.50;;;16.10;59.30;;;;;;5010502;28;45346;-75
2022/11/04 11:09:51;;;;;;;0.80;0.50;;;16.10;59.40;;;;;;5009401;28;45311;-75
2022/11/04 11:12:22;;;;;;;1.52;0.50;;;16.20;59.30;;;;;;5008745;28;45265;-75
2022/11/04 11:14:49;;;;;;;0.57;0.40;;;16.20;59.20;;;;;;5008585;28;45453;-75
2022/11/04 11:17:26;;;;;;;1.15;0.70;;;16.20;59.20;;;;;;5007649;28;46411;-75
2022/11/04 11:19:58;;;;;;;1.75;0.60;;;16.30;59.00;;;;;;5007669;28;45277;-76
2022/11/04 11:22:34;;;;;;;3.03;0.60;;;16.30;58.90;;;;;;5008416;28;45347;-76
2022/11/04 11:25:24;;;;;;;0.70;0.60;;;16.30;58.90;;;;;;5007812;28;45288;-75
2022/11/04 11:27:52;;;;;;;0.77;0.57;;;16.30;58.90;;;;;;5008004;28;46338;-75
2022/11/04 11:30:20;;;;;;;1.10;0.68;;;16.30;58.80;;;;;;4991262;28;45281;-75
2022/11/04 11:32:52;;;;;;;1.48;0.52;;;16.30;59.00;;;;;;4988783;28;45230;-74
2022/11/04 11:35:22;;;;;;;0.40;0.30;;;16.30;59.10;;;;;;5001073;28;45300;-75
2022/11/04 11:37:49;;;;;;;0.50;0.50;;;16.30;59.00;;;;;;5007118;28;46282;-75
2022/11/04 11:40:26;;;;;;;0.73;0.60;;;16.30;59.10;;;;;;5003991;28;45580;-75
2022/11/04 11:42:53;;;;;;;1.00;0.50;;;16.30;59.00;;;;;;5009440;28;45275;-75
2022/11/04 11:45:22;;;;;;;1.23;0.80;;;16.30;59.10;;;;;;5008809;28;45398;-75
2022/11/04 11:47:53;;;;;;;0.68;0.40;;;16.30;59.00;;;;;;5009838;28;47484;-75
2022/11/04 11:50:25;;;;;;;1.50;0.50;;;16.30;59.00;;;;;;5007761;28;45307;-75
2022/11/04 11:52:53;;;;;;;0.40;0.40;;;16.30;59.00;;;;;;5007042;28;45464;-76
2022/11/04 11:55:21;;;;;;;2.97;0.55;;;16.30;59.10;;;;;;5007019;28;45464;-76
2022/11/04 11:57:55;;;;;;;1.23;0.50;;;16.30;59.00;;;;;;4998602;28;45346;-75
2022/11/04 12:00:31;;;;;;;1.33;0.50;;;16.30;59.00;;;;;;5007399;28;45299;-75
2022/11/04 12:02:59;;;;;;;1.02;0.65;;;16.40;59.10;;;;;;5012465;28;44681;-75
2022/11/04 12:05:32;;;;;;;2.10;0.47;;;16.30;59.00;;;;;;5008858;28;45264;-75
2022/11/04 12:08:04;;;;;;;0.70;0.45;;;16.30;59.00;;;;;;5005999;28;45703;-75
2022/11/04 12:10:34;;;;;;;0.82;0.50;;;16.30;58.90;;;;;;5006082;28;45341;-74
2022/11/04 12:13:06;;;;;;;1.95;0.90;;;16.30;59.00;;;;;;5024477;28;45211;-75
2022/11/04 12:15:39;;;;;;;4.03;0.80;;;16.30;59.00;;;;;;5014493;28;45286;-76
2022/11/04 12:18:16;;;;;;;1.88;0.85;;;16.30;59.10;;;;;;5001249;28;46548;-76
2022/11/04 12:20:50;;;;;;;2.08;1.08;;;16.40;59.00;;;;;;5005528;28;45349;-76
2022/11/04 12:23:20;;;;;;;2.50;0.90;;;16.40;59.00;;;;;;5005817;28;45403;-76
2022/11/04 12:25:52;;;;;;;5.45;1.40;;;16.40;59.10;;;;;;5006661;28;45346;-76
2022/11/04 12:28:25;;;;;;;3.83;1.30;;;16.40;59.00;;;;;;5003861;28;45784;-76
2022/11/04 12:31:00;;;;;;;2.83;1.10;;;16.40;58.90;;;;;;5018171;28;45437;-76
2022/11/04 12:33:32;;;;;;;2.53;0.88;;;16.40;59.00;;;;;;5026743;28;45425;-77
2022/11/04 12:36:07;;;;;;;2.40;1.20;;;16.40;59.10;;;;;;5011941;28;45279;-77
2022/11/04 12:38:41;;;;;;;3.65;0.93;;;16.40;59.10;;;;;;5004219;28;45413;-76
2022/11/04 12:41:12;;;;;;;2.70;0.90;;;16.40;59.00;;;;;;5007154;28;45299;-77
2022/11/04 12:43:43;;;;;;;4.22;1.05;;;16.40;59.10;;;;;;5005702;28;45360;-78
2022/11/04 12:46:14;;;;;;;3.97;1.17;;;16.50;58.90;;;;;;5006424;28;45292;-77
2022/11/04 12:48:53;;;;;;;2.88;0.93;;;16.50;58.90;;;;;;5005021;28;46729;-77
2022/11/04 12:51:26;;;;;;;3.40;0.95;;;16.60;58.60;;;;;;5006717;28;45402;-78
2022/11/04 12:54:02;;;;;;;3.05;1.27;;;16.60;58.40;;;;;;5006600;28;45575;-77
2022/11/04 12:56:36;;;;;;;5.57;1.02;;;16.70;58.40;;;;;;5006678;28;45638;-77
2022/11/04 12:59:34;;;;;;;4.18;0.90;;;16.70;58.40;;;;;;5005883;28;46778;-78
2022/11/04 13:02:02;;;;;;;4.07;1.15;;;16.70;58.40;;;;;;5004847;28;45475;-77
2022/11/04 13:04:31;;;;;;;2.67;1.23;;;16.60;58.50;;;;;;5013014;28;45269;-77
2022/11/04 13:07:02;;;;;;;2.88;1.40;;;16.70;58.50;;;;;;5014634;28;45500;-77
2022/11/04 13:09:31;;;;;;;0.88;0.80;;;16.70;58.40;;;;;;5012434;28;45612;-77
2022/11/04 13:12:02;;;;;;;4.30;1.15;;;16.70;58.50;;;;;;5007589;28;45307;-77
2022/11/04 13:14:30;;;;;;;3.47;1.48;;;16.70;58.30;;;;;;5007354;28;45164;-78
2022/11/04 13:16:59;;;;;;;2.60;1.15;;;16.80;58.10;;;;;;5004869;28;45536;-77
2022/11/04 13:19:27;;;;;;;4.07;1.10;;;16.90;57.90;;;;;;5018694;28;45418;-77
2022/11/04 13:21:55;;;;;;;2.58;1.10;;;16.90;57.60;;;;;;5018264;28;45201;-75
2022/11/04 13:24:29;;;;;;;4.38;1.35;;;17.00;57.40;;;;;;5012451;28;45418;-77
2022/11/04 13:26:56;;;;;;;2.97;1.42;;;17.00;57.40;;;;;;5008810;28;45616;-76
2022/11/04 13:29:24;;;;;;;2.92;1.13;;;17.00;57.40;;;;;;5006166;28;46792;-76
2022/11/04 13:31:53;;;;;;;4.60;1.20;;;17.00;57.50;;;;;;5010840;28;45532;-78